Aérodrome :
LOGIN :

S'inscrire | Disclaimer

   EN    FR    IT 

 










Légende :    VFR   VFR Marginal   IFR   IFR Intensif   IFR Très Intensif
Visi : 
Plafond : 
>= 8 km
>= 3000ft
5 à 8 km
1000 à 3000 ft
1500m à 5 km
500 à 1000 ft
800 à 1500m
200 à 500 ft
< 800m
< 200 ft
Symboles :   Orages  Brouillard  Fortes neiges  Fortes précipitations  Vent > 20 kt
SIGMETs :   Divers  Orages  Givrage  Turbulence  Onde Orograph.  Cendres Volcan.






- Altitude de l'aérodrome : 289 ft


LFYR - Romorantin Pruniers

DERNIER METAR :
  • 041600Z AUTO 08003KT 9999 SCT035/// BKN058/// OVC150/// ///CB 19/18 Q1011

METARs EXPIRÉS :
  • 041530Z AUTO 10005KT 9999 FEW009/// SCT013/// BKN039/// ///CB 19/18 Q1011
  • 041500Z AUTO 08006KT 9999 SCT008/// BKN015/// BKN046/// ///CB 20/18 Q1011 TEMPO 1400 TSRA BKN005 BKN020CB
  • 041430Z AUTO 08006KT 9999 BKN009/// OVC014/// ///CB 20/18 Q1011 TEMPO 1400 TSRA
  • 041400Z AUTO 07006KT 9999 BKN007/// BKN030/// BKN035/// ///CB 19/18 Q1011 TEMPO 3000 RA
  • 041330Z AUTO 10006KT 060V120 8000 SCT006/// BKN020/// BKN033/// ///TCU 19/18 Q1011 TEMPO 3000 RA BKN005 BKN015TCU
  • 041300Z AUTO 10005KT 9999 BKN006/// BKN015/// OVC022/// ///TCU 18/17 Q1011 TEMPO 3000 RA

TAF TAF LFYR
Valide du 04 à 15h jusqu'au 05 à 15h UTC


041400Z 0415/0515 05005KT 9999 SCT020 BKN040
TEMPO 0415/0420 3000 RA BKN005 BKN015TCU
PROB40
TEMPO 0415/0418 VRB10G20KT 1400 TSRA BKN005 BKN020CB
BECMG 0420/0422 25005KT
TEMPO 0422/0509 4000 BR BKN007
PROB40
TEMPO 0500/0508 1200 DZ OVC003
TEMPO 0512/0515 23015G25KT 4000 SHRA BKN020TCU



MET'MAP, la Météo Aéronautique d'un coup d'oeil ! - Copyright ORBIFLY Décembre 2007 - Disclaimer

ORBIFLY MET'MAP TEAM :

Programmation & Développement : Alexandra Zaïnal
Sur une idée originale de : Baudouin d'Aumeries
Assistance à la programmation : Marc-Olivier Méhu
Soutien technique & logistique : Manuel Goepfert

Contact : metmap@orbifly.com




SOURCES & CREDITS :

   NOAA